createdAt,value
2019-04-28T00:01:28.718Z,11.60
2019-04-28T00:03:32.615Z,11.60
2019-04-28T00:05:36.718Z,11.60
2019-04-28T00:07:41.153Z,11.60
2019-04-28T00:09:45.786Z,11.60
2019-04-28T00:11:49.526Z,11.60
2019-04-28T00:13:53.674Z,11.60
2019-04-28T00:15:58.081Z,11.50
2019-04-28T00:18:04.183Z,11.50
2019-04-28T00:20:10.680Z,11.50
2019-04-28T00:22:16.505Z,11.50
2019-04-28T00:24:38.177Z,11.50
2019-04-28T00:26:43.613Z,11.40
2019-04-28T00:28:47.642Z,11.40
2019-04-28T00:30:51.740Z,11.30
2019-04-28T00:32:55.966Z,11.40
2019-04-28T00:35:02.155Z,11.30
2019-04-28T00:37:11.120Z,11.30
2019-04-28T00:39:15.305Z,11.30
2019-04-28T00:41:19.046Z,11.40
2019-04-28T00:43:23.923Z,11.30
2019-04-28T00:45:28.046Z,11.30
2019-04-28T00:47:32.053Z,11.30
2019-04-28T00:49:37.419Z,11.30
2019-04-28T00:51:41.662Z,11.30
2019-04-28T00:53:45.966Z,11.30
2019-04-28T00:55:51.618Z,11.30
2019-04-28T00:57:55.570Z,11.30
2019-04-28T01:00:02.115Z,11.30
2019-04-28T01:02:21.167Z,11.30
2019-04-28T01:04:25.060Z,11.30
2019-04-28T01:06:29.059Z,11.30
2019-04-28T01:08:32.852Z,11.30
2019-04-28T01:10:36.583Z,11.30
2019-04-28T01:12:41.193Z,11.30
2019-04-28T01:14:45.178Z,11.40
2019-04-28T01:16:57.315Z,11.40
2019-04-28T01:19:02.530Z,11.40
2019-04-28T01:21:06.630Z,11.40
2019-04-28T01:23:10.480Z,11.40
2019-04-28T01:25:14.337Z,11.40
2019-04-28T01:27:31.724Z,11.40
2019-04-28T01:29:35.767Z,11.40
2019-04-28T01:31:41.069Z,11.40
2019-04-28T01:34:02.785Z,11.40
2019-04-28T01:36:06.614Z,11.40
2019-04-28T01:38:12.279Z,11.40
2019-04-28T01:40:15.713Z,11.40
2019-04-28T01:42:20.371Z,11.40
2019-04-28T01:44:24.601Z,11.40
2019-04-28T01:46:29.807Z,11.40
2019-04-28T01:48:33.745Z,11.30
2019-04-28T01:50:37.538Z,11.40
2019-04-28T01:52:42.049Z,11.40
2019-04-28T01:54:45.853Z,11.30
2019-04-28T01:56:50.224Z,11.30
2019-04-28T01:58:53.987Z,11.30
2019-04-28T02:00:59.428Z,11.30
2019-04-28T02:03:03.150Z,11.20
2019-04-28T02:05:07.278Z,11.20
2019-04-28T02:07:11.186Z,11.20
2019-04-28T02:09:15.101Z,11.20
2019-04-28T02:11:19.795Z,11.20
2019-04-28T02:13:24.002Z,11.20
2019-04-28T02:15:30.053Z,11.20
2019-04-28T02:17:33.397Z,11.20
2019-04-28T02:19:37.129Z,11.20
2019-04-28T02:21:59.476Z,11.10
2019-04-28T02:24:21.350Z,11.20
2019-04-28T02:26:25.077Z,11.10
2019-04-28T02:28:29.568Z,11.00
2019-04-28T02:30:45.413Z,11.00
2019-04-28T02:32:40.747Z,11.00
2019-04-28T02:34:44.802Z,10.90
2019-04-28T02:36:50.594Z,11.00
2019-04-28T02:38:54.266Z,11.00
2019-04-28T02:41:00.123Z,11.00
2019-04-28T02:43:03.341Z,11.00
2019-04-28T02:45:08.305Z,10.90
2019-04-28T02:47:12.098Z,10.90
2019-04-28T02:49:23.306Z,10.90
2019-04-28T02:51:44.887Z,10.90
2019-04-28T02:53:51.004Z,10.90
2019-04-28T02:55:53.779Z,10.90
2019-04-28T02:57:57.645Z,10.80
2019-04-28T03:00:01.370Z,10.90
2019-04-28T03:02:05.484Z,10.90
2019-04-28T03:04:12.153Z,10.90
2019-04-28T03:06:14.726Z,10.80
2019-04-28T03:08:21.393Z,10.80
2019-04-28T03:10:24.303Z,10.80
2019-04-28T03:12:28.066Z,10.80
2019-04-28T03:14:31.799Z,10.80
2019-04-28T03:16:36.083Z,10.80
2019-04-28T03:18:41.327Z,10.80
2019-04-28T03:20:45.678Z,10.80
2019-04-28T03:22:51.028Z,10.80
2019-04-28T03:24:56.511Z,10.80
2019-04-28T03:27:10.988Z,10.80
2019-04-28T03:29:16.350Z,10.80
2019-04-28T03:31:51.069Z,10.70
2019-04-28T03:33:32.988Z,10.80
2019-04-28T03:35:34.467Z,10.80
2019-04-28T03:37:38.162Z,10.70
2019-04-28T03:39:42.180Z,10.70
2019-04-28T03:41:46.050Z,10.70
2019-04-28T03:43:51.241Z,10.70
2019-04-28T03:46:03.441Z,10.70
2019-04-28T03:48:06.099Z,10.70
2019-04-28T03:50:10.633Z,10.80
2019-04-28T03:52:14.859Z,10.80
2019-04-28T03:54:20.428Z,10.70
2019-04-28T03:56:24.233Z,10.80
2019-04-28T03:58:30.855Z,10.80
2019-04-28T04:00:33.458Z,10.80
2019-04-28T04:02:37.450Z,10.80
2019-04-28T04:04:41.721Z,10.80
2019-04-28T04:06:45.391Z,10.80
2019-04-28T04:08:50.598Z,10.90
2019-04-28T04:10:56.153Z,11.00
2019-04-28T04:13:11.052Z,10.90
2019-04-28T04:15:24.545Z,11.00
2019-04-28T04:17:41.307Z,11.10
2019-04-28T04:19:44.625Z,11.10
2019-04-28T04:21:50.663Z,11.10
2019-04-28T04:23:53.658Z,11.10
2019-04-28T04:25:57.238Z,11.20
2019-04-28T04:28:03.639Z,11.20
2019-04-28T04:30:06.882Z,11.20
2019-04-28T04:32:20.562Z,11.20
2019-04-28T04:34:15.943Z,11.30
2019-04-28T04:36:21.171Z,11.30
2019-04-28T04:38:25.029Z,11.30
2019-04-28T04:40:31.339Z,11.30
2019-04-28T04:42:34.841Z,11.30
2019-04-28T04:44:41.371Z,11.30
2019-04-28T04:46:44.167Z,11.30
2019-04-28T04:48:50.533Z,11.30
2019-04-28T04:50:54.044Z,11.40
2019-04-28T04:52:57.947Z,11.40
2019-04-28T04:55:01.607Z,11.40
2019-04-28T04:57:05.328Z,11.50
2019-04-28T04:59:10.279Z,11.50
2019-04-28T05:01:25.407Z,11.50
2019-04-28T05:03:33.761Z,11.60
2019-04-28T05:05:41.814Z,11.60
2019-04-28T05:07:46.157Z,11.70
2019-04-28T05:09:49.805Z,11.70
2019-04-28T05:11:53.862Z,11.70
2019-04-28T05:13:59.595Z,11.80
2019-04-28T05:16:03.545Z,11.80
2019-04-28T05:18:07.284Z,11.90
2019-04-28T05:20:11.062Z,11.90
2019-04-28T05:22:15.564Z,11.90
2019-04-28T05:24:20.875Z,12.00
2019-04-28T05:26:26.581Z,12.00
2019-04-28T05:28:32.467Z,12.00
2019-04-28T05:30:39.725Z,12.10
2019-04-28T05:32:45.528Z,12.10
2019-04-28T05:34:48.029Z,12.20
2019-04-28T05:36:52.302Z,12.30
2019-04-28T05:38:56.022Z,12.30
2019-04-28T05:41:00.291Z,12.40
2019-04-28T05:43:05.302Z,12.40
2019-04-28T05:45:10.352Z,12.50
2019-04-28T05:47:14.242Z,12.50
2019-04-28T05:49:39.669Z,12.60
2019-04-28T05:51:50.544Z,12.70
2019-04-28T05:53:59.519Z,12.70
2019-04-28T05:56:17.518Z,12.70
2019-04-28T05:58:25.479Z,12.70
2019-04-28T06:00:37.094Z,12.70
2019-04-28T06:02:55.521Z,12.80
2019-04-28T06:04:50.624Z,12.80
2019-04-28T06:06:55.911Z,12.80
2019-04-28T06:09:07.053Z,12.80
2019-04-28T06:11:30.650Z,12.90
2019-04-28T06:13:34.481Z,12.80
2019-04-28T06:15:39.658Z,12.80
2019-04-28T06:17:43.974Z,12.80
2019-04-28T06:19:48.024Z,12.80
2019-04-28T06:21:51.687Z,12.70
2019-04-28T06:23:56.359Z,12.70
2019-04-28T06:26:00.487Z,12.70
2019-04-28T06:28:04.615Z,12.70
2019-04-28T06:30:08.927Z,12.70
2019-04-28T06:32:12.951Z,12.60
2019-04-28T06:34:16.981Z,12.50
2019-04-28T06:36:20.706Z,12.50
2019-04-28T06:38:24.646Z,12.40
2019-04-28T06:40:28.706Z,12.40
2019-04-28T06:42:32.443Z,12.40
2019-04-28T06:44:36.180Z,12.40
2019-04-28T06:46:40.186Z,12.40
2019-04-28T06:48:43.843Z,12.40
2019-04-28T06:50:47.574Z,12.50
2019-04-28T06:52:52.260Z,12.40
2019-04-28T06:54:55.908Z,12.50
2019-04-28T06:56:59.994Z,12.50
2019-04-28T06:59:03.861Z,12.50
2019-04-28T07:01:07.606Z,12.50
2019-04-28T07:03:22.627Z,12.50
2019-04-28T07:05:17.049Z,12.40
2019-04-28T07:07:20.958Z,12.40
2019-04-28T07:09:24.610Z,12.40
2019-04-28T07:11:28.381Z,12.40
2019-04-28T07:13:32.116Z,12.40
2019-04-28T07:15:36.198Z,12.40
2019-04-28T07:17:40.010Z,12.30
2019-04-28T07:19:45.814Z,12.30
2019-04-28T07:22:07.098Z,12.30
2019-04-28T07:24:11.133Z,12.30
2019-04-28T07:26:15.246Z,12.30
2019-04-28T07:28:18.974Z,12.20
2019-04-28T07:30:23.949Z,12.20
2019-04-28T07:32:28.703Z,12.10
2019-04-28T07:34:32.846Z,12.10
2019-04-28T07:36:36.562Z,12.10
2019-04-28T07:38:41.235Z,12.10
2019-04-28T07:40:45.378Z,12.00
2019-04-28T07:42:49.110Z,11.90
2019-04-28T07:44:53.156Z,11.90
2019-04-28T07:46:56.824Z,11.90
2019-04-28T07:49:00.546Z,11.90
2019-04-28T07:51:04.273Z,11.90
2019-04-28T07:53:18.646Z,11.90
2019-04-28T07:55:23.170Z,11.90
2019-04-28T07:57:26.997Z,11.90
2019-04-28T07:59:31.834Z,11.90
2019-04-28T08:01:35.738Z,12.00
2019-04-28T08:03:49.229Z,12.00
2019-04-28T08:05:45.209Z,11.90
2019-04-28T08:07:49.834Z,12.00
2019-04-28T08:09:53.797Z,12.00
2019-04-28T08:11:58.526Z,12.00
2019-04-28T08:14:02.254Z,12.00
2019-04-28T08:16:06.118Z,12.10
2019-04-28T08:18:09.843Z,12.10
2019-04-28T08:20:14.026Z,12.10
2019-04-28T08:22:18.091Z,12.20
2019-04-28T08:24:21.814Z,12.20
2019-04-28T08:26:25.926Z,12.10
2019-04-28T08:28:30.023Z,12.10
2019-04-28T08:30:34.794Z,12.10
2019-04-28T08:32:40.162Z,12.10
2019-04-28T08:34:43.906Z,12.10
2019-04-28T08:36:47.874Z,12.10
2019-04-28T08:38:51.581Z,12.00
2019-04-28T08:40:55.242Z,12.00
2019-04-28T08:42:59.118Z,12.00
2019-04-28T08:45:02.929Z,12.10
2019-04-28T08:47:07.672Z,12.00
2019-04-28T08:49:11.406Z,12.00
2019-04-28T08:51:15.410Z,11.90
2019-04-28T08:53:20.322Z,12.00
2019-04-28T08:55:24.101Z,12.00
2019-04-28T08:57:28.150Z,11.90
2019-04-28T08:59:32.042Z,11.90
2019-04-28T09:01:35.802Z,11.90
2019-04-28T09:03:39.494Z,11.90
2019-04-28T09:05:43.355Z,11.90
2019-04-28T09:07:47.097Z,11.80
2019-04-28T09:09:51.787Z,11.80
2019-04-28T09:11:58.133Z,11.70
2019-04-28T09:14:03.229Z,11.70
2019-04-28T09:16:07.318Z,11.60
2019-04-28T09:18:11.394Z,11.60
2019-04-28T09:20:15.401Z,11.50
2019-04-28T09:22:19.178Z,11.50
2019-04-28T09:24:22.897Z,11.50
2019-04-28T09:26:26.825Z,11.50
2019-04-28T09:28:30.486Z,11.50
2019-04-28T09:30:34.323Z,11.60
2019-04-28T09:32:38.051Z,11.50
2019-04-28T09:34:41.780Z,11.50
2019-04-28T09:36:45.925Z,11.50
2019-04-28T09:38:50.079Z,11.60
2019-04-28T09:40:54.148Z,11.60
2019-04-28T09:43:02.263Z,11.70
2019-04-28T09:45:08.146Z,11.60
2019-04-28T09:47:11.837Z,11.70
2019-04-28T09:49:15.577Z,11.70
2019-04-28T09:51:19.298Z,11.80
2019-04-28T09:53:23.351Z,11.90
2019-04-28T09:55:27.158Z,12.10
2019-04-28T09:57:30.817Z,12.20
2019-04-28T09:59:35.350Z,12.40
2019-04-28T10:01:38.941Z,12.50
2019-04-28T10:03:42.670Z,12.50
2019-04-28T10:05:47.351Z,12.50
2019-04-28T10:07:51.026Z,12.50
2019-04-28T10:09:54.693Z,12.50
2019-04-28T10:11:59.369Z,12.30
2019-04-28T10:14:03.093Z,12.30
2019-04-28T10:16:06.919Z,12.20
2019-04-28T10:18:11.565Z,12.10
2019-04-28T10:20:16.291Z,12.00
2019-04-28T10:22:20.097Z,12.00
2019-04-28T10:24:23.749Z,11.90
2019-04-28T10:26:27.874Z,12.00
2019-04-28T10:28:31.528Z,12.00
2019-04-28T10:30:35.368Z,12.10
2019-04-28T10:32:39.242Z,12.10
2019-04-28T10:34:54.326Z,12.10
2019-04-28T10:36:48.902Z,12.10
2019-04-28T10:38:54.578Z,12.20
2019-04-28T10:41:05.862Z,12.20
2019-04-28T10:43:09.749Z,12.20
2019-04-28T10:45:17.787Z,12.20
2019-04-28T10:47:24.441Z,12.00
2019-04-28T10:49:28.278Z,12.00
2019-04-28T10:51:32.913Z,12.00
2019-04-28T10:53:36.646Z,12.00
2019-04-28T10:55:40.835Z,11.90
2019-04-28T10:57:45.367Z,11.90
2019-04-28T10:59:49.085Z,11.90
2019-04-28T11:01:53.194Z,11.80
2019-04-28T11:03:58.765Z,11.80
2019-04-28T11:06:02.485Z,11.90
2019-04-28T11:08:10.615Z,11.90
2019-04-28T11:10:16.282Z,11.80
2019-04-28T11:12:26.103Z,11.90
2019-04-28T11:14:29.857Z,11.90
2019-04-28T11:16:35.186Z,11.90
2019-04-28T11:18:39.143Z,11.80
2019-04-28T11:20:43.491Z,11.70
2019-04-28T11:22:47.263Z,11.70
2019-04-28T11:24:51.606Z,11.70
2019-04-28T11:26:56.294Z,11.60
2019-04-28T11:29:00.191Z,11.60
2019-04-28T11:31:04.309Z,11.70
2019-04-28T11:33:26.312Z,11.70
2019-04-28T11:35:31.755Z,11.70
2019-04-28T11:37:35.787Z,11.70
2019-04-28T11:39:41.581Z,11.60
2019-04-28T11:41:45.304Z,11.60
2019-04-28T11:43:49.354Z,11.60
2019-04-28T11:45:54.030Z,11.60
2019-04-28T11:47:58.179Z,11.70
2019-04-28T11:50:02.291Z,11.60
2019-04-28T11:52:06.581Z,11.60
2019-04-28T11:54:10.314Z,11.60
2019-04-28T11:56:14.159Z,11.60
2019-04-28T11:58:18.455Z,11.60
2019-04-28T12:00:33.595Z,11.60
2019-04-28T12:02:37.370Z,11.50
2019-04-28T12:04:42.985Z,11.50
2019-04-28T12:06:47.145Z,11.40
2019-04-28T12:08:55.758Z,11.30
2019-04-28T12:11:01.138Z,11.30
2019-04-28T12:13:15.850Z,11.20
2019-04-28T12:15:21.607Z,11.20
2019-04-28T12:17:36.071Z,11.20
2019-04-28T12:19:42.382Z,11.20
2019-04-28T12:21:46.426Z,11.20
2019-04-28T12:23:50.743Z,11.20
2019-04-28T12:25:54.647Z,11.20
2019-04-28T12:27:58.762Z,11.40
2019-04-28T12:30:02.492Z,11.30
2019-04-28T12:32:06.571Z,11.30
2019-04-28T12:34:10.674Z,11.40
2019-04-28T12:36:14.787Z,11.40
2019-04-28T12:38:18.552Z,11.50
2019-04-28T12:40:23.378Z,11.60
2019-04-28T12:42:27.421Z,11.70
2019-04-28T12:44:31.533Z,11.70
2019-04-28T12:46:35.539Z,11.80
2019-04-28T12:48:39.653Z,11.90
2019-04-28T12:50:45.401Z,11.90
2019-04-28T12:52:50.092Z,11.80
2019-04-28T12:54:54.263Z,11.70
2019-04-28T12:56:58.460Z,11.60
2019-04-28T12:59:04.186Z,11.60
2019-04-28T13:01:11.621Z,11.60
2019-04-28T13:03:33.193Z,11.60
2019-04-28T13:05:38.710Z,11.60
2019-04-28T13:07:42.594Z,11.50
2019-04-28T13:09:47.214Z,11.50
2019-04-28T13:11:50.866Z,11.50
2019-04-28T13:13:54.636Z,11.50
2019-04-28T13:15:58.669Z,11.40
2019-04-28T13:18:02.726Z,11.40
2019-04-28T13:20:06.899Z,11.40
2019-04-28T13:22:11.580Z,11.40
2019-04-28T13:24:15.754Z,11.40
2019-04-28T13:26:21.229Z,11.30
2019-04-28T13:28:24.958Z,11.30
2019-04-28T13:30:29.007Z,11.30
2019-04-28T13:32:32.802Z,11.40
2019-04-28T13:34:38.761Z,11.40
2019-04-28T13:36:42.494Z,11.40
2019-04-28T13:38:46.560Z,11.50
2019-04-28T13:40:51.278Z,11.50
2019-04-28T13:42:55.405Z,11.50
2019-04-28T13:45:03.282Z,11.50
2019-04-28T13:47:07.586Z,11.50
2019-04-28T13:49:14.508Z,11.50
2019-04-28T13:51:18.368Z,11.50
2019-04-28T13:53:23.626Z,11.50
2019-04-28T13:55:29.347Z,11.50
2019-04-28T13:57:33.417Z,11.50
2019-04-28T13:59:37.264Z,11.60
2019-04-28T14:01:42.955Z,11.60
2019-04-28T14:03:54.336Z,11.70
2019-04-28T14:06:27.225Z,11.60
2019-04-28T14:08:20.447Z,11.60
2019-04-28T14:10:24.565Z,11.50
2019-04-28T14:12:28.268Z,11.40
2019-04-28T14:14:32.254Z,11.40
2019-04-28T14:16:35.969Z,11.40
2019-04-28T14:18:40.585Z,11.30
2019-04-28T14:20:45.254Z,11.20
2019-04-28T14:22:49.215Z,11.20
2019-04-28T14:24:53.342Z,11.20
2019-04-28T14:26:58.022Z,11.20
2019-04-28T14:29:02.276Z,11.20
2019-04-28T14:31:06.512Z,11.20
2019-04-28T14:33:10.236Z,11.20
2019-04-28T14:35:16.452Z,11.20
2019-04-28T14:37:20.130Z,11.20
2019-04-28T14:39:24.601Z,11.10
2019-04-28T14:41:28.493Z,11.10
2019-04-28T14:43:32.476Z,11.10
2019-04-28T14:45:36.342Z,11.10
2019-04-28T14:47:40.292Z,11.10
2019-04-28T14:49:44.409Z,11.10
2019-04-28T14:51:48.439Z,11.10
2019-04-28T14:53:52.922Z,11.00
2019-04-28T14:55:57.485Z,11.10
2019-04-28T14:58:02.171Z,11.00
2019-04-28T15:00:08.030Z,11.00
2019-04-28T15:02:14.474Z,11.00
2019-04-28T15:04:23.395Z,11.00
2019-04-28T15:06:31.545Z,11.00
2019-04-28T15:08:37.131Z,10.90
2019-04-28T15:10:45.629Z,10.90
2019-04-28T15:12:50.090Z,10.90
2019-04-28T15:14:53.880Z,10.90
2019-04-28T15:16:57.481Z,10.90
2019-04-28T15:19:01.930Z,10.90
2019-04-28T15:21:06.344Z,10.80
2019-04-28T15:23:11.382Z,10.80
2019-04-28T15:25:15.105Z,10.90
2019-04-28T15:27:18.718Z,10.80
2019-04-28T15:29:22.453Z,10.80
2019-04-28T15:31:26.657Z,10.80
2019-04-28T15:33:30.727Z,10.80
2019-04-28T15:35:34.453Z,10.80
2019-04-28T15:37:38.110Z,10.80
2019-04-28T15:39:41.865Z,10.80
2019-04-28T15:41:46.395Z,10.80
2019-04-28T15:43:52.553Z,10.70
2019-04-28T15:45:56.345Z,10.70
2019-04-28T15:48:00.640Z,10.70
2019-04-28T15:50:07.864Z,10.70
2019-04-28T15:52:11.809Z,10.70
2019-04-28T15:54:16.505Z,10.60
2019-04-28T15:56:24.977Z,10.60
2019-04-28T15:58:36.072Z,10.60
2019-04-28T16:00:40.186Z,10.60
2019-04-28T16:02:44.342Z,10.60
2019-04-28T16:04:48.112Z,10.60
2019-04-28T16:06:54.482Z,10.60
2019-04-28T16:08:58.215Z,10.50
2019-04-28T16:11:01.930Z,10.60
2019-04-28T16:13:05.655Z,10.50
2019-04-28T16:15:10.327Z,10.50
2019-04-28T16:17:14.489Z,10.50
2019-04-28T16:19:18.226Z,10.50
2019-04-28T16:21:23.134Z,10.50
2019-04-28T16:23:27.178Z,10.50
2019-04-28T16:25:31.194Z,10.50
2019-04-28T16:27:36.011Z,10.50
2019-04-28T16:29:40.705Z,10.50
2019-04-28T16:31:44.775Z,10.40
2019-04-28T16:33:48.853Z,10.50
2019-04-28T16:35:53.613Z,10.50
2019-04-28T16:37:57.582Z,10.40
2019-04-28T16:40:01.389Z,10.40
2019-04-28T16:42:08.766Z,10.40
2019-04-28T16:44:13.414Z,10.40
2019-04-28T16:46:17.244Z,10.40
2019-04-28T16:48:21.242Z,10.40
2019-04-28T16:50:25.957Z,10.40
2019-04-28T16:52:30.564Z,10.40
2019-04-28T16:54:34.260Z,10.30
2019-04-28T16:56:48.673Z,10.30
2019-04-28T16:58:54.351Z,10.30
2019-04-28T17:00:59.838Z,10.20
2019-04-28T17:03:03.562Z,10.20
2019-04-28T17:05:08.870Z,10.20
2019-04-28T17:07:12.594Z,10.20
2019-04-28T17:09:18.062Z,10.20
2019-04-28T17:11:22.070Z,10.20
2019-04-28T17:13:25.734Z,10.20
2019-04-28T17:15:30.397Z,10.20
2019-04-28T17:17:34.707Z,10.20
2019-04-28T17:19:40.515Z,10.30
2019-04-28T17:21:44.345Z,10.20
2019-04-28T17:23:48.285Z,10.20
2019-04-28T17:25:52.413Z,10.20
2019-04-28T17:27:56.592Z,10.20
2019-04-28T17:30:00.734Z,10.10
2019-04-28T17:32:04.914Z,10.00
2019-04-28T17:34:09.602Z,10.00
2019-04-28T17:36:13.653Z,10.00
2019-04-28T17:38:17.770Z,9.90
2019-04-28T17:40:22.199Z,10.00
2019-04-28T17:42:26.428Z,10.00
2019-04-28T17:44:32.649Z,9.90
2019-04-28T17:46:38.286Z,9.90
2019-04-28T17:48:56.118Z,9.90
2019-04-28T17:50:59.909Z,9.90
2019-04-28T17:53:03.930Z,9.90
2019-04-28T17:55:08.722Z,9.90
2019-04-28T17:57:13.585Z,9.90
2019-04-28T17:59:17.493Z,9.90
2019-04-28T18:01:39.149Z,9.90
2019-04-28T18:03:47.586Z,9.80
2019-04-28T18:05:52.942Z,9.80
2019-04-28T18:07:58.306Z,9.80
2019-04-28T18:10:03.100Z,9.80
2019-04-28T18:12:07.329Z,9.80
2019-04-28T18:14:11.338Z,9.80
2019-04-28T18:16:30.389Z,9.90
2019-04-28T18:18:35.788Z,9.90
2019-04-28T18:20:40.958Z,9.80
2019-04-28T18:22:44.703Z,9.90
2019-04-28T18:24:48.639Z,9.90
2019-04-28T18:26:52.573Z,9.90
2019-04-28T18:28:56.678Z,10.00
2019-04-28T18:31:02.325Z,10.10
2019-04-28T18:33:12.758Z,10.10
2019-04-28T18:35:18.126Z,10.10
2019-04-28T18:37:40.685Z,10.10
2019-04-28T18:40:01.439Z,10.10
2019-04-28T18:42:08.666Z,10.10
2019-04-28T18:44:17.261Z,10.10
2019-04-28T18:46:23.601Z,10.10
2019-04-28T18:48:27.559Z,10.10
2019-04-28T18:50:32.289Z,10.10
2019-04-28T18:52:36.029Z,10.20
2019-04-28T18:54:40.011Z,10.10
2019-04-28T18:56:44.662Z,10.10
2019-04-28T18:58:48.706Z,10.10
2019-04-28T19:00:54.819Z,10.20
2019-04-28T19:02:58.976Z,10.10
2019-04-28T19:05:02.683Z,10.20
2019-04-28T19:07:08.454Z,10.20
2019-04-28T19:09:26.430Z,10.20
2019-04-28T19:11:32.151Z,10.20
2019-04-28T19:13:50.073Z,10.20
2019-04-28T19:16:10.711Z,10.20
2019-04-28T19:18:17.105Z,10.20
2019-04-28T19:20:21.229Z,10.10
2019-04-28T19:22:25.562Z,10.20
2019-04-28T19:24:29.279Z,10.20
2019-04-28T19:26:33.288Z,10.20
2019-04-28T19:28:37.062Z,10.20
2019-04-28T19:30:41.576Z,10.20
2019-04-28T19:32:46.576Z,10.20
2019-04-28T19:34:50.264Z,10.10
2019-04-28T19:36:54.430Z,10.10
2019-04-28T19:39:03.329Z,10.20
2019-04-28T19:41:04.898Z,10.10
2019-04-28T19:43:08.715Z,10.10
2019-04-28T19:45:14.745Z,10.10
2019-04-28T19:47:18.830Z,10.10
2019-04-28T19:49:22.589Z,10.10
2019-04-28T19:51:31.899Z,10.10
2019-04-28T19:53:32.506Z,10.10
2019-04-28T19:55:40.784Z,10.10
2019-04-28T19:57:46.483Z,10.10
2019-04-28T20:00:10.062Z,10.10
2019-04-28T20:02:14.202Z,10.10
2019-04-28T20:04:18.230Z,10.10
2019-04-28T20:06:22.647Z,10.10
2019-04-28T20:08:26.370Z,10.20
2019-04-28T20:10:31.002Z,10.20
2019-04-28T20:12:35.016Z,10.20
2019-04-28T20:14:39.646Z,10.20
2019-04-28T20:16:44.392Z,10.20
2019-04-28T20:18:49.172Z,10.20
2019-04-28T20:20:53.290Z,10.20
2019-04-28T20:22:57.950Z,10.30
2019-04-28T20:25:01.599Z,10.20
2019-04-28T20:27:06.303Z,10.20
2019-04-28T20:29:10.106Z,10.20
2019-04-28T20:31:13.930Z,10.20
2019-04-28T20:33:18.065Z,10.10
2019-04-28T20:35:32.301Z,10.10
2019-04-28T20:37:37.910Z,10.10
2019-04-28T20:39:41.898Z,10.10
2019-04-28T20:41:46.067Z,10.00
2019-04-28T20:43:50.164Z,10.00
2019-04-28T20:45:54.733Z,10.10
2019-04-28T20:47:58.386Z,10.00
2019-04-28T20:50:02.099Z,10.00
2019-04-28T20:52:05.817Z,10.10
2019-04-28T20:54:09.762Z,10.00
2019-04-28T20:56:13.417Z,10.10
2019-04-28T20:58:17.015Z,10.10
2019-04-28T21:00:21.102Z,10.10
2019-04-28T21:02:24.770Z,10.10
2019-04-28T21:04:28.421Z,10.10
2019-04-28T21:06:32.371Z,10.10
2019-04-28T21:08:36.170Z,10.10
2019-04-28T21:10:40.726Z,10.10
2019-04-28T21:12:44.386Z,10.10
2019-04-28T21:14:48.123Z,10.10
2019-04-28T21:16:52.155Z,10.10
2019-04-28T21:18:55.831Z,10.00
2019-04-28T21:20:59.846Z,10.10
2019-04-28T21:23:03.822Z,10.00
2019-04-28T21:25:07.650Z,10.10
2019-04-28T21:27:11.225Z,10.10
2019-04-28T21:29:14.818Z,10.00
2019-04-28T21:31:19.059Z,10.10
2019-04-28T21:33:23.509Z,10.10
2019-04-28T21:35:27.236Z,10.10
2019-04-28T21:37:30.983Z,10.10
2019-04-28T21:39:34.790Z,10.10
2019-04-28T21:41:38.446Z,10.10
2019-04-28T21:43:46.830Z,10.10
2019-04-28T21:45:54.742Z,10.10
2019-04-28T21:47:58.733Z,10.10
2019-04-28T21:50:03.493Z,10.10
2019-04-28T21:52:07.677Z,10.10
2019-04-28T21:54:11.450Z,10.10
2019-04-28T21:56:15.274Z,10.10
2019-04-28T21:58:32.304Z,10.10
2019-04-28T22:00:29.225Z,10.10
2019-04-28T22:02:33.010Z,10.10
2019-04-28T22:04:37.086Z,10.10
2019-04-28T22:06:40.749Z,10.10
2019-04-28T22:08:44.407Z,10.10
2019-04-28T22:10:48.106Z,10.10
2019-04-28T22:12:53.658Z,10.10
2019-04-28T22:14:57.377Z,10.10
2019-04-28T22:17:01.164Z,10.10
2019-04-28T22:19:05.885Z,10.10
2019-04-28T22:21:09.993Z,10.10
2019-04-28T22:23:18.585Z,10.10
2019-04-28T22:25:22.565Z,10.10
2019-04-28T22:27:27.862Z,10.10
2019-04-28T22:29:31.737Z,10.10
2019-04-28T22:31:36.021Z,10.10
2019-04-28T22:33:39.926Z,10.10
2019-04-28T22:35:43.710Z,10.10
2019-04-28T22:37:47.975Z,10.10
2019-04-28T22:39:51.637Z,10.10
2019-04-28T22:41:55.677Z,10.20
2019-04-28T22:43:59.546Z,10.10
2019-04-28T22:46:03.289Z,10.10
2019-04-28T22:48:08.569Z,10.10
2019-04-28T22:50:31.721Z,10.10
2019-04-28T22:52:35.377Z,10.10
2019-04-28T22:54:41.141Z,10.10
2019-04-28T22:56:46.537Z,10.00
2019-04-28T22:58:52.042Z,10.10
2019-04-28T23:01:09.701Z,10.00
2019-04-28T23:03:14.995Z,10.00
2019-04-28T23:05:19.609Z,10.00
2019-04-28T23:07:23.506Z,10.00
2019-04-28T23:09:27.309Z,10.00
2019-04-28T23:11:31.141Z,9.90
2019-04-28T23:13:35.121Z,9.90
2019-04-28T23:15:38.937Z,9.90
2019-04-28T23:17:42.585Z,9.90
2019-04-28T23:19:46.369Z,9.90
2019-04-28T23:22:04.002Z,9.90
2019-04-28T23:24:07.730Z,9.80
2019-04-28T23:26:11.461Z,9.80
2019-04-28T23:28:15.149Z,9.80
2019-04-28T23:30:36.238Z,9.90
2019-04-28T23:32:39.953Z,9.80
2019-04-28T23:34:43.801Z,9.80
2019-04-28T23:36:47.526Z,9.80
2019-04-28T23:38:51.105Z,9.80
2019-04-28T23:41:05.120Z,9.70
2019-04-28T23:43:16.132Z,9.80
2019-04-28T23:45:19.824Z,9.70
2019-04-28T23:47:23.735Z,9.70
2019-04-28T23:49:29.076Z,9.70
2019-04-28T23:51:34.821Z,9.80
2019-04-28T23:53:58.314Z,9.80
2019-04-28T23:56:02.291Z,9.80
2019-04-28T23:58:06.298Z,9.80
